sensor_id;sensor_type;location;lat;lon;timestamp;temperature;humidity
8226;DHT22;4154;48.810;9.012;2023-08-21T00:01:19;24.30;99.90
8226;DHT22;4154;48.810;9.012;2023-08-21T00:18:21;24.10;99.90
8226;DHT22;4154;48.810;9.012;2023-08-21T00:30:33;24.10;99.90
8226;DHT22;4154;48.810;9.012;2023-08-21T00:32:59;24.00;99.90
8226;DHT22;4154;48.810;9.012;2023-08-21T00:35:24;24.10;99.90
8226;DHT22;4154;48.810;9.012;2023-08-21T00:37:52;23.90;99.90
8226;DHT22;4154;48.810;9.012;2023-08-21T00:40:18;23.90;99.90
8226;DHT22;4154;48.810;9.012;2023-08-21T00:50:03;23.90;99.90
8226;DHT22;4154;48.810;9.012;2023-08-21T00:52:32;23.90;99.90
8226;DHT22;4154;48.810;9.012;2023-08-21T00:55:00;23.80;99.90
8226;DHT22;4154;48.810;9.012;2023-08-21T00:59:53;23.80;99.90
8226;DHT22;4154;48.810;9.012;2023-08-21T01:02:19;23.80;99.90
8226;DHT22;4154;48.810;9.012;2023-08-21T01:04:45;23.70;99.90
8226;DHT22;4154;48.810;9.012;2023-08-21T01:09:59;23.70;99.90
8226;DHT22;4154;48.810;9.012;2023-08-21T01:12:56;24.60;99.90
8226;DHT22;4154;48.810;9.012;2023-08-21T01:27:46;23.50;99.90
8226;DHT22;4154;48.810;9.012;2023-08-21T01:33:06;23.50;99.90
8226;DHT22;4154;48.810;9.012;2023-08-21T01:35:36;23.40;99.90
8226;DHT22;4154;48.810;9.012;2023-08-21T01:38:03;23.40;99.90
8226;DHT22;4154;48.810;9.012;2023-08-21T01:40:29;23.40;99.90
8226;DHT22;4154;48.810;9.012;2023-08-21T01:42:55;23.40;99.90
8226;DHT22;4154;48.810;9.012;2023-08-21T01:45:21;23.30;99.90
8226;DHT22;4154;48.810;9.012;2023-08-21T01:55:06;23.20;99.90
8226;DHT22;4154;48.810;9.012;2023-08-21T01:57:33;23.20;99.90
8226;DHT22;4154;48.810;9.012;2023-08-21T02:14:35;23.10;99.90
8226;DHT22;4154;48.810;9.012;2023-08-21T02:41:22;22.80;99.90
8226;DHT22;4154;48.810;9.012;2023-08-21T03:00:50;22.70;99.90
8226;DHT22;4154;48.810;9.012;2023-08-21T03:03:16;22.60;99.90
8226;DHT22;4154;48.810;9.012;2023-08-21T03:05:42;22.50;99.90
8226;DHT22;4154;48.810;9.012;2023-08-21T03:13:02;22.50;99.90
8226;DHT22;4154;48.810;9.012;2023-08-21T03:17:54;22.50;99.90
8226;DHT22;4154;48.810;9.012;2023-08-21T03:30:08;22.40;99.90
8226;DHT22;4154;48.810;9.012;2023-08-21T03:42:18;22.30;99.90
8226;DHT22;4154;48.810;9.012;2023-08-21T03:44:43;22.30;99.90
8226;DHT22;4154;48.810;9.012;2023-08-21T04:04:19;22.20;99.90
8226;DHT22;4154;48.810;9.012;2023-08-21T04:14:03;22.10;99.90
8226;DHT22;4154;48.810;9.012;2023-08-21T04:23:48;22.10;99.90
8226;DHT22;4154;48.810;9.012;2023-08-21T04:26:14;22.60;99.90
8226;DHT22;4154;48.810;9.012;2023-08-21T04:28:40;22.10;99.90
8226;DHT22;4154;48.810;9.012;2023-08-21T04:31:08;22.60;99.90
8226;DHT22;4154;48.810;9.012;2023-08-21T04:33:34;22.00;99.90
8226;DHT22;4154;48.810;9.012;2023-08-21T04:38:26;22.00;99.90
8226;DHT22;4154;48.810;9.012;2023-08-21T04:40:52;22.10;99.90
8226;DHT22;4154;48.810;9.012;2023-08-21T04:43:18;22.00;99.90
8226;DHT22;4154;48.810;9.012;2023-08-21T04:45:51;21.50;99.90
8226;DHT22;4154;48.810;9.012;2023-08-21T04:48:19;22.00;99.90
8226;DHT22;4154;48.810;9.012;2023-08-21T04:55:42;22.00;99.90
8226;DHT22;4154;48.810;9.012;2023-08-21T04:58:08;21.90;99.90
8226;DHT22;4154;48.810;9.012;2023-08-21T05:00:35;21.90;99.90
8226;DHT22;4154;48.810;9.012;2023-08-21T05:12:46;21.90;99.90
8226;DHT22;4154;48.810;9.012;2023-08-21T05:20:05;21.90;99.90
8226;DHT22;4154;48.810;9.012;2023-08-21T05:39:36;22.00;99.90
8226;DHT22;4154;48.810;9.012;2023-08-21T05:44:27;22.20;99.90
8226;DHT22;4154;48.810;9.012;2023-08-21T06:06:49;22.20;99.90
8226;DHT22;4154;48.810;9.012;2023-08-21T06:21:30;22.40;99.90
8226;DHT22;4154;48.810;9.012;2023-08-21T06:23:58;22.40;99.90
8226;DHT22;4154;48.810;9.012;2023-08-21T07:20:07;23.70;99.90
8226;DHT22;4154;48.810;9.012;2023-08-21T07:34:52;24.10;99.90
8226;DHT22;4154;48.810;9.012;2023-08-21T07:44:39;24.40;99.90
8226;DHT22;4154;48.810;9.012;2023-08-21T07:49:32;24.50;99.90
8226;DHT22;4154;48.810;9.012;2023-08-21T07:56:54;24.80;99.90
8226;DHT22;4154;48.810;9.012;2023-08-21T08:18:48;25.30;99.90
8226;DHT22;4154;48.810;9.012;2023-08-21T08:21:14;25.40;99.90
8226;DHT22;4154;48.810;9.012;2023-08-21T08:23:40;25.50;99.90
8226;DHT22;4154;48.810;9.012;2023-08-21T08:40:46;26.00;99.90
8226;DHT22;4154;48.810;9.012;2023-08-21T08:43:13;26.10;99.90
8226;DHT22;4154;48.810;9.012;2023-08-21T08:45:41;26.00;99.90
8226;DHT22;4154;48.810;9.012;2023-08-21T08:48:07;26.20;99.90
8226;DHT22;4154;48.810;9.012;2023-08-21T08:50:34;26.20;99.90
8226;DHT22;4154;48.810;9.012;2023-08-21T08:53:01;26.20;99.90
8226;DHT22;4154;48.810;9.012;2023-08-21T09:00:20;26.50;99.90
8226;DHT22;4154;48.810;9.012;2023-08-21T09:02:46;26.60;99.90
8226;DHT22;4154;48.810;9.012;2023-08-21T09:07:39;26.70;99.90
8226;DHT22;4154;48.810;9.012;2023-08-21T09:10:13;29.00;99.90
8226;DHT22;4154;48.810;9.012;2023-08-21T09:17:36;26.80;99.90
8226;DHT22;4154;48.810;9.012;2023-08-21T09:20:06;28.30;99.90
8226;DHT22;4154;48.810;9.012;2023-08-21T09:25:06;26.90;99.90
8226;DHT22;4154;48.810;9.012;2023-08-21T09:27:34;27.10;99.90
8226;DHT22;4154;48.810;9.012;2023-08-21T09:30:03;27.10;99.90
8226;DHT22;4154;48.810;9.012;2023-08-21T09:32:30;29.70;99.90
8226;DHT22;4154;48.810;9.012;2023-08-21T09:34:56;27.10;99.90
8226;DHT22;4154;48.810;9.012;2023-08-21T09:37:28;27.10;99.90
8226;DHT22;4154;48.810;9.012;2023-08-21T09:40:01;27.10;99.90
8226;DHT22;4154;48.810;9.012;2023-08-21T09:42:32;26.90;99.90
8226;DHT22;4154;48.810;9.012;2023-08-21T09:49:53;27.40;99.90
8226;DHT22;4154;48.810;9.012;2023-08-21T09:52:19;26.60;99.90
8226;DHT22;4154;48.810;9.012;2023-08-21T09:54:45;27.70;99.90
8226;DHT22;4154;48.810;9.012;2023-08-21T09:57:12;27.60;99.30
8226;DHT22;4154;48.810;9.012;2023-08-21T10:02:06;27.80;98.40
8226;DHT22;4154;48.810;9.012;2023-08-21T10:07:02;27.80;98.70
8226;DHT22;4154;48.810;9.012;2023-08-21T10:14:24;27.90;98.20
8226;DHT22;4154;48.810;9.012;2023-08-21T10:16:52;27.90;97.80
8226;DHT22;4154;48.810;9.012;2023-08-21T10:19:18;27.90;98.00
8226;DHT22;4154;48.810;9.012;2023-08-21T10:21:49;27.90;98.10
8226;DHT22;4154;48.810;9.012;2023-08-21T10:24:33;27.90;98.00
8226;DHT22;4154;48.810;9.012;2023-08-21T10:27:00;27.70;98.40
8226;DHT22;4154;48.810;9.012;2023-08-21T10:29:27;28.10;98.50
8226;DHT22;4154;48.810;9.012;2023-08-21T10:32:03;28.00;98.70
8226;DHT22;4154;48.810;9.012;2023-08-21T10:34:35;28.10;98.80
8226;DHT22;4154;48.810;9.012;2023-08-21T10:37:10;28.20;99.10
8226;DHT22;4154;48.810;9.012;2023-08-21T10:39:39;28.30;98.60
8226;DHT22;4154;48.810;9.012;2023-08-21T10:45:10;28.40;99.40
8226;DHT22;4154;48.810;9.012;2023-08-21T10:50:05;28.60;98.10
8226;DHT22;4154;48.810;9.012;2023-08-21T10:52:37;28.60;98.30
8226;DHT22;4154;48.810;9.012;2023-08-21T10:55:08;28.60;97.60
8226;DHT22;4154;48.810;9.012;2023-08-21T10:57:35;28.70;97.60
8226;DHT22;4154;48.810;9.012;2023-08-21T11:00:09;28.70;98.10
8226;DHT22;4154;48.810;9.012;2023-08-21T11:02:40;28.90;97.90
8226;DHT22;4154;48.810;9.012;2023-08-21T11:05:08;28.90;98.10
8226;DHT22;4154;48.810;9.012;2023-08-21T11:07:46;28.90;97.80
8226;DHT22;4154;48.810;9.012;2023-08-21T11:10:17;30.30;97.60
8226;DHT22;4154;48.810;9.012;2023-08-21T11:12:54;28.80;97.30
8226;DHT22;4154;48.810;9.012;2023-08-21T11:15:21;28.60;97.60
8226;DHT22;4154;48.810;9.012;2023-08-21T11:17:59;27.80;97.00
8226;DHT22;4154;48.810;9.012;2023-08-21T11:20:34;28.80;97.90
8226;DHT22;4154;48.810;9.012;2023-08-21T11:23:04;28.90;98.00
8226;DHT22;4154;48.810;9.012;2023-08-21T11:25:35;29.10;97.40
8226;DHT22;4154;48.810;9.012;2023-08-21T11:28:05;29.20;97.40
8226;DHT22;4154;48.810;9.012;2023-08-21T11:30:31;29.10;97.40
8226;DHT22;4154;48.810;9.012;2023-08-21T11:33:08;29.50;98.20
8226;DHT22;4154;48.810;9.012;2023-08-21T11:43:00;29.30;97.00
8226;DHT22;4154;48.810;9.012;2023-08-21T11:45:27;29.90;97.30
8226;DHT22;4154;48.810;9.012;2023-08-21T11:47:55;29.50;97.00
8226;DHT22;4154;48.810;9.012;2023-08-21T11:50:22;29.40;97.10
8226;DHT22;4154;48.810;9.012;2023-08-21T11:52:51;29.70;97.20
8226;DHT22;4154;48.810;9.012;2023-08-21T11:57:51;29.70;97.30
8226;DHT22;4154;48.810;9.012;2023-08-21T12:00:18;28.10;96.00
8226;DHT22;4154;48.810;9.012;2023-08-21T12:02:54;29.90;99.90
8226;DHT22;4154;48.810;9.012;2023-08-21T12:07:50;29.80;95.60
8226;DHT22;4154;48.810;9.012;2023-08-21T12:10:24;29.60;95.70
8226;DHT22;4154;48.810;9.012;2023-08-21T12:17:44;29.60;95.90
8226;DHT22;4154;48.810;9.012;2023-08-21T12:20:09;30.90;96.80
8226;DHT22;4154;48.810;9.012;2023-08-21T12:22:39;29.70;96.40
8226;DHT22;4154;48.810;9.012;2023-08-21T12:34:52;29.90;95.90
8226;DHT22;4154;48.810;9.012;2023-08-21T12:37:18;31.30;97.00
8226;DHT22;4154;48.810;9.012;2023-08-21T12:39:44;30.00;99.90
8226;DHT22;4154;48.810;9.012;2023-08-21T12:42:10;29.80;96.20
8226;DHT22;4154;48.810;9.012;2023-08-21T12:44:35;30.00;96.00
8226;DHT22;4154;48.810;9.012;2023-08-21T13:01:39;30.40;95.80
8226;DHT22;4154;48.810;9.012;2023-08-21T13:04:05;30.40;95.00
8226;DHT22;4154;48.810;9.012;2023-08-21T13:06:31;31.60;95.70
8226;DHT22;4154;48.810;9.012;2023-08-21T13:08:57;30.30;94.90
8226;DHT22;4154;48.810;9.012;2023-08-21T13:18:41;30.00;95.10
8226;DHT22;4154;48.810;9.012;2023-08-21T13:21:06;29.50;98.90
8226;DHT22;4154;48.810;9.012;2023-08-21T13:23:32;30.00;95.50
8226;DHT22;4154;48.810;9.012;2023-08-21T13:26:00;30.30;95.30
8226;DHT22;4154;48.810;9.012;2023-08-21T13:30:52;29.70;98.60
8226;DHT22;4154;48.810;9.012;2023-08-21T13:33:18;29.90;95.30
8226;DHT22;4154;48.810;9.012;2023-08-21T13:38:14;29.80;95.60
8226;DHT22;4154;48.810;9.012;2023-08-21T13:40:40;29.80;95.30
8226;DHT22;4154;48.810;9.012;2023-08-21T13:48:05;29.60;95.20
8226;DHT22;4154;48.810;9.012;2023-08-21T13:50:31;30.80;95.90
8226;DHT22;4154;48.810;9.012;2023-08-21T13:55:23;29.90;96.00
8226;DHT22;4154;48.810;9.012;2023-08-21T13:57:49;30.00;96.10
8226;DHT22;4154;48.810;9.012;2023-08-21T14:05:09;30.20;95.90
8226;DHT22;4154;48.810;9.012;2023-08-21T14:07:36;30.20;95.70
8226;DHT22;4154;48.810;9.012;2023-08-21T14:10:03;30.50;94.60
8226;DHT22;4154;48.810;9.012;2023-08-21T14:12:30;30.40;94.80
8226;DHT22;4154;48.810;9.012;2023-08-21T14:14:57;31.30;95.00
8226;DHT22;4154;48.810;9.012;2023-08-21T14:17:23;30.50;94.90
8226;DHT22;4154;48.810;9.012;2023-08-21T14:19:49;30.50;94.40
8226;DHT22;4154;48.810;9.012;2023-08-21T14:27:07;30.50;94.80
8226;DHT22;4154;48.810;9.012;2023-08-21T14:29:33;30.30;94.00
8226;DHT22;4154;48.810;9.012;2023-08-21T14:31:59;30.60;94.60
8226;DHT22;4154;48.810;9.012;2023-08-21T14:34:26;30.60;95.00
8226;DHT22;4154;48.810;9.012;2023-08-21T14:36:56;30.70;94.60
8226;DHT22;4154;48.810;9.012;2023-08-21T14:39:23;30.70;94.80
8226;DHT22;4154;48.810;9.012;2023-08-21T14:41:58;31.50;95.40
8226;DHT22;4154;48.810;9.012;2023-08-21T14:44:25;31.70;95.00
8226;DHT22;4154;48.810;9.012;2023-08-21T14:46:55;30.70;94.40
8226;DHT22;4154;48.810;9.012;2023-08-21T14:49:21;30.50;94.50
8226;DHT22;4154;48.810;9.012;2023-08-21T14:51:47;30.80;95.00
8226;DHT22;4154;48.810;9.012;2023-08-21T14:54:13;30.70;95.20
8226;DHT22;4154;48.810;9.012;2023-08-21T15:04:03;30.40;94.80
8226;DHT22;4154;48.810;9.012;2023-08-21T15:06:28;31.40;95.30
8226;DHT22;4154;48.810;9.012;2023-08-21T15:11:20;30.50;94.70
8226;DHT22;4154;48.810;9.012;2023-08-21T15:13:46;30.60;95.10
8226;DHT22;4154;48.810;9.012;2023-08-21T15:18:38;30.60;94.30
8226;DHT22;4154;48.810;9.012;2023-08-21T15:25:55;30.70;94.40
8226;DHT22;4154;48.810;9.012;2023-08-21T15:28:21;30.70;94.70
8226;DHT22;4154;48.810;9.012;2023-08-21T15:30:46;30.80;94.30
8226;DHT22;4154;48.810;9.012;2023-08-21T15:33:12;30.80;94.30
8226;DHT22;4154;48.810;9.012;2023-08-21T15:35:38;30.80;94.50
8226;DHT22;4154;48.810;9.012;2023-08-21T15:38:03;30.90;94.60
8226;DHT22;4154;48.810;9.012;2023-08-21T15:40:29;30.80;94.70
8226;DHT22;4154;48.810;9.012;2023-08-21T15:42:56;30.90;93.90
8226;DHT22;4154;48.810;9.012;2023-08-21T15:45:24;30.70;94.20
8226;DHT22;4154;48.810;9.012;2023-08-21T15:47:49;30.60;94.00
8226;DHT22;4154;48.810;9.012;2023-08-21T15:50:15;30.50;94.70
8226;DHT22;4154;48.810;9.012;2023-08-21T15:52:45;30.40;94.50
8226;DHT22;4154;48.810;9.012;2023-08-21T15:57:38;30.30;94.30
8226;DHT22;4154;48.810;9.012;2023-08-21T16:00:04;30.20;94.50
8226;DHT22;4154;48.810;9.012;2023-08-21T16:02:31;30.20;94.70
8226;DHT22;4154;48.810;9.012;2023-08-21T16:04:56;30.20;94.60
8226;DHT22;4154;48.810;9.012;2023-08-21T16:07:22;30.20;94.60
8226;DHT22;4154;48.810;9.012;2023-08-21T16:09:48;30.20;94.80
8226;DHT22;4154;48.810;9.012;2023-08-21T16:12:14;30.20;94.90
8226;DHT22;4154;48.810;9.012;2023-08-21T16:14:39;30.10;94.70
8226;DHT22;4154;48.810;9.012;2023-08-21T16:17:05;30.10;94.10
8226;DHT22;4154;48.810;9.012;2023-08-21T16:19:33;30.10;94.40
8226;DHT22;4154;48.810;9.012;2023-08-21T16:21:59;30.20;94.70
8226;DHT22;4154;48.810;9.012;2023-08-21T16:34:10;30.20;94.20
8226;DHT22;4154;48.810;9.012;2023-08-21T16:36:36;30.10;94.90
8226;DHT22;4154;48.810;9.012;2023-08-21T16:39:03;30.20;94.20
8226;DHT22;4154;48.810;9.012;2023-08-21T16:41:29;30.10;94.30
8226;DHT22;4154;48.810;9.012;2023-08-21T16:43:54;30.90;94.60
8226;DHT22;4154;48.810;9.012;2023-08-21T16:51:15;30.00;93.90
8226;DHT22;4154;48.810;9.012;2023-08-21T16:58:33;30.00;94.80
8226;DHT22;4154;48.810;9.012;2023-08-21T17:05:52;29.80;94.50
8226;DHT22;4154;48.810;9.012;2023-08-21T17:10:44;29.90;94.40
8226;DHT22;4154;48.810;9.012;2023-08-21T17:13:10;30.30;94.80
8226;DHT22;4154;48.810;9.012;2023-08-21T17:15:36;29.90;94.30
8226;DHT22;4154;48.810;9.012;2023-08-21T17:20:28;29.80;94.70
8226;DHT22;4154;48.810;9.012;2023-08-21T17:22:54;29.70;95.00
8226;DHT22;4154;48.810;9.012;2023-08-21T17:25:21;29.70;95.00
8226;DHT22;4154;48.810;9.012;2023-08-21T17:27:47;29.70;94.80
8226;DHT22;4154;48.810;9.012;2023-08-21T17:30:13;29.60;95.20
8226;DHT22;4154;48.810;9.012;2023-08-21T17:32:39;29.50;95.30
8226;DHT22;4154;48.810;9.012;2023-08-21T17:35:05;29.50;95.40
8226;DHT22;4154;48.810;9.012;2023-08-21T17:37:31;29.50;95.20
8226;DHT22;4154;48.810;9.012;2023-08-21T17:39:57;29.40;95.10
8226;DHT22;4154;48.810;9.012;2023-08-21T17:44:54;29.30;95.10
8226;DHT22;4154;48.810;9.012;2023-08-21T17:47:20;29.30;95.10
8226;DHT22;4154;48.810;9.012;2023-08-21T17:49:46;29.20;95.40
8226;DHT22;4154;48.810;9.012;2023-08-21T17:54:38;29.20;95.10
8226;DHT22;4154;48.810;9.012;2023-08-21T17:57:03;29.10;95.50
8226;DHT22;4154;48.810;9.012;2023-08-21T17:59:29;28.90;98.90
8226;DHT22;4154;48.810;9.012;2023-08-21T18:01:55;29.10;95.80
8226;DHT22;4154;48.810;9.012;2023-08-21T18:06:47;29.00;95.90
8226;DHT22;4154;48.810;9.012;2023-08-21T18:17:00;28.70;95.90
8226;DHT22;4154;48.810;9.012;2023-08-21T18:21:55;28.60;95.80
8226;DHT22;4154;48.810;9.012;2023-08-21T18:26:47;28.60;95.90
8226;DHT22;4154;48.810;9.012;2023-08-21T18:29:13;28.50;96.10
8226;DHT22;4154;48.810;9.012;2023-08-21T18:31:38;28.50;96.20
8226;DHT22;4154;48.810;9.012;2023-08-21T18:34:04;28.40;95.90
8226;DHT22;4154;48.810;9.012;2023-08-21T18:38:58;28.40;96.00
8226;DHT22;4154;48.810;9.012;2023-08-21T18:41:28;28.30;96.00
8226;DHT22;4154;48.810;9.012;2023-08-21T18:43:54;28.30;96.30
8226;DHT22;4154;48.810;9.012;2023-08-21T18:46:20;28.30;96.30
8226;DHT22;4154;48.810;9.012;2023-08-21T18:48:46;28.20;96.40
8226;DHT22;4154;48.810;9.012;2023-08-21T18:51:12;28.20;96.20
8226;DHT22;4154;48.810;9.012;2023-08-21T18:53:38;27.90;96.40
8226;DHT22;4154;48.810;9.012;2023-08-21T18:56:03;28.00;96.60
8226;DHT22;4154;48.810;9.012;2023-08-21T18:58:31;28.00;96.70
8226;DHT22;4154;48.810;9.012;2023-08-21T19:00:57;27.90;99.90
8226;DHT22;4154;48.810;9.012;2023-08-21T19:03:23;27.80;96.80
8226;DHT22;4154;48.810;9.012;2023-08-21T19:10:43;27.80;96.60
8226;DHT22;4154;48.810;9.012;2023-08-21T19:18:02;27.80;96.30
8226;DHT22;4154;48.810;9.012;2023-08-21T19:20:29;27.80;96.50
8226;DHT22;4154;48.810;9.012;2023-08-21T19:22:55;27.60;96.50
8226;DHT22;4154;48.810;9.012;2023-08-21T19:25:21;27.80;96.40
8226;DHT22;4154;48.810;9.012;2023-08-21T19:27:47;27.80;96.50
8226;DHT22;4154;48.810;9.012;2023-08-21T19:30:13;27.70;96.60
8226;DHT22;4154;48.810;9.012;2023-08-21T19:32:39;27.70;96.50
8226;DHT22;4154;48.810;9.012;2023-08-21T19:35:06;27.70;96.50
8226;DHT22;4154;48.810;9.012;2023-08-21T19:37:32;27.70;96.90
8226;DHT22;4154;48.810;9.012;2023-08-21T19:39:58;29.20;97.50
8226;DHT22;4154;48.810;9.012;2023-08-21T19:42:24;27.50;97.30
8226;DHT22;4154;48.810;9.012;2023-08-21T19:44:50;27.40;97.80
8226;DHT22;4154;48.810;9.012;2023-08-21T19:47:16;27.30;98.00
8226;DHT22;4154;48.810;9.012;2023-08-21T19:49:42;27.20;98.70
8226;DHT22;4154;48.810;9.012;2023-08-21T19:52:08;27.20;98.60
8226;DHT22;4154;48.810;9.012;2023-08-21T20:36:06;26.50;99.90
8226;DHT22;4154;48.810;9.012;2023-08-21T20:41:04;26.20;99.90
8226;DHT22;4154;48.810;9.012;2023-08-21T20:43:32;26.20;99.90
8226;DHT22;4154;48.810;9.012;2023-08-21T20:46:03;26.20;99.90
8226;DHT22;4154;48.810;9.012;2023-08-21T20:53:25;26.20;99.90
8226;DHT22;4154;48.810;9.012;2023-08-21T20:55:54;27.40;99.90
8226;DHT22;4154;48.810;9.012;2023-08-21T21:00:52;26.00;99.90
8226;DHT22;4154;48.810;9.012;2023-08-21T21:08:12;26.00;99.90
8226;DHT22;4154;48.810;9.012;2023-08-21T21:10:51;26.00;99.90
8226;DHT22;4154;48.810;9.012;2023-08-21T21:13:29;26.00;99.90
8226;DHT22;4154;48.810;9.012;2023-08-21T21:15:58;25.90;99.90
8226;DHT22;4154;48.810;9.012;2023-08-21T21:35:32;25.70;99.90
8226;DHT22;4154;48.810;9.012;2023-08-21T21:37:58;27.90;99.90
8226;DHT22;4154;48.810;9.012;2023-08-21T21:40:24;25.70;99.90
8226;DHT22;4154;48.810;9.012;2023-08-21T21:42:50;25.60;99.90
8226;DHT22;4154;48.810;9.012;2023-08-21T21:45:16;25.60;99.90
8226;DHT22;4154;48.810;9.012;2023-08-21T21:47:43;25.50;99.90
8226;DHT22;4154;48.810;9.012;2023-08-21T21:50:09;25.50;99.90
8226;DHT22;4154;48.810;9.012;2023-08-21T21:55:02;25.40;99.90
8226;DHT22;4154;48.810;9.012;2023-08-21T21:59:53;25.40;99.90
8226;DHT22;4154;48.810;9.012;2023-08-21T22:02:19;25.30;99.90
8226;DHT22;4154;48.810;9.012;2023-08-21T22:04:45;26.50;99.90
8226;DHT22;4154;48.810;9.012;2023-08-21T22:09:37;25.30;99.90
8226;DHT22;4154;48.810;9.012;2023-08-21T22:12:03;25.30;99.90
8226;DHT22;4154;48.810;9.012;2023-08-21T22:14:29;25.20;99.90
8226;DHT22;4154;48.810;9.012;2023-08-21T22:16:54;25.20;99.90
8226;DHT22;4154;48.810;9.012;2023-08-21T22:19:20;25.40;99.90
8226;DHT22;4154;48.810;9.012;2023-08-21T22:24:11;25.20;99.90
8226;DHT22;4154;48.810;9.012;2023-08-21T22:26:37;25.10;99.90
8226;DHT22;4154;48.810;9.012;2023-08-21T22:31:29;25.00;99.90
8226;DHT22;4154;48.810;9.012;2023-08-21T22:33:54;25.00;99.90
8226;DHT22;4154;48.810;9.012;2023-08-21T22:36:20;24.90;99.90
8226;DHT22;4154;48.810;9.012;2023-08-21T22:38:45;24.90;99.90
8226;DHT22;4154;48.810;9.012;2023-08-21T22:41:11;24.90;99.90
8226;DHT22;4154;48.810;9.012;2023-08-21T22:43:37;24.90;99.90
8226;DHT22;4154;48.810;9.012;2023-08-21T22:46:04;24.90;99.90
8226;DHT22;4154;48.810;9.012;2023-08-21T22:48:30;24.80;99.90
8226;DHT22;4154;48.810;9.012;2023-08-21T22:51:02;24.70;99.90
8226;DHT22;4154;48.810;9.012;2023-08-21T22:53:30;24.70;99.90
8226;DHT22;4154;48.810;9.012;2023-08-21T22:55:55;24.70;99.90
8226;DHT22;4154;48.810;9.012;2023-08-21T22:58:21;24.60;99.90
8226;DHT22;4154;48.810;9.012;2023-08-21T23:00:47;24.60;99.90
8226;DHT22;4154;48.810;9.012;2023-08-21T23:03:12;24.60;99.90
8226;DHT22;4154;48.810;9.012;2023-08-21T23:05:38;24.60;99.90
8226;DHT22;4154;48.810;9.012;2023-08-21T23:08:04;25.40;99.90
8226;DHT22;4154;48.810;9.012;2023-08-21T23:12:56;24.50;99.90
8226;DHT22;4154;48.810;9.012;2023-08-21T23:17:47;24.40;99.90
8226;DHT22;4154;48.810;9.012;2023-08-21T23:22:40;24.40;99.90
8226;DHT22;4154;48.810;9.012;2023-08-21T23:25:06;24.40;99.90
8226;DHT22;4154;48.810;9.012;2023-08-21T23:27:33;24.40;99.90
8226;DHT22;4154;48.810;9.012;2023-08-21T23:29:59;24.30;99.90
8226;DHT22;4154;48.810;9.012;2023-08-21T23:32:24;24.30;99.90
8226;DHT22;4154;48.810;9.012;2023-08-21T23:34:50;24.30;99.90
8226;DHT22;4154;48.810;9.012;2023-08-21T23:37:15;25.80;99.90
8226;DHT22;4154;48.810;9.012;2023-08-21T23:39:41;24.20;99.90
8226;DHT22;4154;48.810;9.012;2023-08-21T23:42:07;24.20;99.90
8226;DHT22;4154;48.810;9.012;2023-08-21T23:44:32;24.20;99.90
8226;DHT22;4154;48.810;9.012;2023-08-21T23:46:58;24.20;99.90
8226;DHT22;4154;48.810;9.012;2023-08-21T23:49:23;24.10;99.90
8226;DHT22;4154;48.810;9.012;2023-08-21T23:51:49;23.80;99.90
8226;DHT22;4154;48.810;9.012;2023-08-21T23:54:15;24.10;99.90
8226;DHT22;4154;48.810;9.012;2023-08-21T23:56:40;24.00;99.90
8226;DHT22;4154;48.810;9.012;2023-08-21T23:59:06;24.00;99.90
